CJH2 weather

Gilbert Plains Airport
Gilbert Plains, Manitoba, Canada

Public forecast

Using degrees Celsius for public forecast. Weather courtesy of forecast.io.

Closest aviation weather report (METAR) to Gilbert Plains Airport

Closest report is Dauphin Barker Airport, 17.0 nm (31.5 km) E. Retrieved 2019/11/18 07:00 UTC (40 minutes ago):

CYDN 180700Z AUTO 19003KT 110V220 9SM OVC075 01/M01 A2951 RMK SLP009

Closest aviation forecast (TAF) to Gilbert Plains Airport

Closest forecast is Dauphin Barker Airport, 17.0 nm (31.5 km) E. Retrieved 2019/11/18 06:42 UTC (58 minutes ago):

TAF CYDN 180539Z 1806/1818 VRB03KT P6SM FEW008 BKN080 FM180900 26006KT P6SM SCT090 TEMPO 1809/1817 BKN060 FM181700 29015G25KT P6SM BKN040 OVC080 TEMPO 1817/1818 P6SM -SHRA BKN020 OVC040 RMK FCST BASED ON AUTO OBS NXT FCST BY 181200Z